sensor_id;sensor_type;location;lat;lon;timestamp;temperature;humidity
6252;DHT22;3159;52.414;9.784;2024-01-15T00:01:22;1.90;99.90
6252;DHT22;3159;52.414;9.784;2024-01-15T00:03:51;1.90;99.90
6252;DHT22;3159;52.414;9.784;2024-01-15T00:06:17;1.90;99.90
6252;DHT22;3159;52.414;9.784;2024-01-15T00:08:44;1.80;99.90
6252;DHT22;3159;52.414;9.784;2024-01-15T00:11:11;1.80;99.90
6252;DHT22;3159;52.414;9.784;2024-01-15T00:13:38;1.90;99.90
6252;DHT22;3159;52.414;9.784;2024-01-15T00:16:05;1.90;99.90
6252;DHT22;3159;52.414;9.784;2024-01-15T00:18:31;2.00;99.90
6252;DHT22;3159;52.414;9.784;2024-01-15T00:21:00;2.00;99.90
6252;DHT22;3159;52.414;9.784;2024-01-15T00:23:26;2.00;99.90
6252;DHT22;3159;52.414;9.784;2024-01-15T00:25:53;2.00;99.90
6252;DHT22;3159;52.414;9.784;2024-01-15T00:28:20;1.90;99.90
6252;DHT22;3159;52.414;9.784;2024-01-15T00:30:47;1.90;99.90
6252;DHT22;3159;52.414;9.784;2024-01-15T00:33:14;2.00;99.90
6252;DHT22;3159;52.414;9.784;2024-01-15T00:35:40;1.90;99.90
6252;DHT22;3159;52.414;9.784;2024-01-15T00:38:08;1.90;99.90
6252;DHT22;3159;52.414;9.784;2024-01-15T00:40:35;1.90;99.90
6252;DHT22;3159;52.414;9.784;2024-01-15T00:43:03;1.90;99.90
6252;DHT22;3159;52.414;9.784;2024-01-15T00:45:30;1.90;99.90
6252;DHT22;3159;52.414;9.784;2024-01-15T00:47:57;1.80;99.90
6252;DHT22;3159;52.414;9.784;2024-01-15T00:50:25;1.90;99.90
6252;DHT22;3159;52.414;9.784;2024-01-15T00:52:51;1.90;99.90
6252;DHT22;3159;52.414;9.784;2024-01-15T00:55:19;1.90;99.90
6252;DHT22;3159;52.414;9.784;2024-01-15T00:57:46;1.80;99.90
6252;DHT22;3159;52.414;9.784;2024-01-15T01:00:14;1.80;99.90
6252;DHT22;3159;52.414;9.784;2024-01-15T01:02:41;1.90;99.90
6252;DHT22;3159;52.414;9.784;2024-01-15T01:05:08;1.80;99.90
6252;DHT22;3159;52.414;9.784;2024-01-15T01:07:35;1.80;99.90
6252;DHT22;3159;52.414;9.784;2024-01-15T01:10:01;1.80;99.90
6252;DHT22;3159;52.414;9.784;2024-01-15T01:12:30;1.80;99.90
6252;DHT22;3159;52.414;9.784;2024-01-15T01:14:56;1.80;99.90
6252;DHT22;3159;52.414;9.784;2024-01-15T01:17:24;1.90;99.90
6252;DHT22;3159;52.414;9.784;2024-01-15T01:19:51;1.80;99.90
6252;DHT22;3159;52.414;9.784;2024-01-15T01:22:18;1.90;99.90
6252;DHT22;3159;52.414;9.784;2024-01-15T01:24:45;1.80;99.90
6252;DHT22;3159;52.414;9.784;2024-01-15T01:27:13;1.80;99.90
6252;DHT22;3159;52.414;9.784;2024-01-15T01:29:41;1.80;99.90
6252;DHT22;3159;52.414;9.784;2024-01-15T01:32:07;1.90;99.90
6252;DHT22;3159;52.414;9.784;2024-01-15T01:34:40;1.90;99.90
6252;DHT22;3159;52.414;9.784;2024-01-15T01:37:07;1.80;99.90
6252;DHT22;3159;52.414;9.784;2024-01-15T01:39:34;1.90;99.90
6252;DHT22;3159;52.414;9.784;2024-01-15T01:42:01;1.90;99.90
6252;DHT22;3159;52.414;9.784;2024-01-15T01:44:28;1.80;99.90
6252;DHT22;3159;52.414;9.784;2024-01-15T01:46:56;1.90;99.90
6252;DHT22;3159;52.414;9.784;2024-01-15T01:49:23;1.90;99.90
6252;DHT22;3159;52.414;9.784;2024-01-15T01:51:51;1.90;99.90
6252;DHT22;3159;52.414;9.784;2024-01-15T01:54:19;1.90;99.90
6252;DHT22;3159;52.414;9.784;2024-01-15T01:56:47;1.90;99.90
6252;DHT22;3159;52.414;9.784;2024-01-15T01:59:14;1.90;99.90
6252;DHT22;3159;52.414;9.784;2024-01-15T02:01:41;1.90;99.90
6252;DHT22;3159;52.414;9.784;2024-01-15T02:04:11;1.90;99.90
6252;DHT22;3159;52.414;9.784;2024-01-15T02:06:38;2.00;99.90
6252;DHT22;3159;52.414;9.784;2024-01-15T02:09:05;1.90;99.90
6252;DHT22;3159;52.414;9.784;2024-01-15T02:11:32;2.00;99.90
6252;DHT22;3159;52.414;9.784;2024-01-15T02:13:58;2.00;99.90
6252;DHT22;3159;52.414;9.784;2024-01-15T02:16:25;2.00;99.90
6252;DHT22;3159;52.414;9.784;2024-01-15T02:18:52;2.00;99.90
6252;DHT22;3159;52.414;9.784;2024-01-15T02:21:20;2.00;99.90
6252;DHT22;3159;52.414;9.784;2024-01-15T02:23:48;2.00;99.90
6252;DHT22;3159;52.414;9.784;2024-01-15T02:26:15;2.10;99.90
6252;DHT22;3159;52.414;9.784;2024-01-15T02:28:42;2.10;99.90
6252;DHT22;3159;52.414;9.784;2024-01-15T02:31:10;2.10;99.90
6252;DHT22;3159;52.414;9.784;2024-01-15T02:33:36;2.10;99.90
6252;DHT22;3159;52.414;9.784;2024-01-15T02:36:04;2.10;99.90
6252;DHT22;3159;52.414;9.784;2024-01-15T02:38:30;2.10;99.90
6252;DHT22;3159;52.414;9.784;2024-01-15T02:40:59;2.10;99.90
6252;DHT22;3159;52.414;9.784;2024-01-15T02:43:25;2.10;99.90
6252;DHT22;3159;52.414;9.784;2024-01-15T02:45:52;2.10;99.90
6252;DHT22;3159;52.414;9.784;2024-01-15T02:48:19;2.10;99.90
6252;DHT22;3159;52.414;9.784;2024-01-15T02:50:46;2.10;99.90
6252;DHT22;3159;52.414;9.784;2024-01-15T02:53:13;2.10;99.90
6252;DHT22;3159;52.414;9.784;2024-01-15T02:55:39;2.10;99.90
6252;DHT22;3159;52.414;9.784;2024-01-15T02:58:08;2.10;99.90
6252;DHT22;3159;52.414;9.784;2024-01-15T03:00:34;2.10;99.90
6252;DHT22;3159;52.414;9.784;2024-01-15T03:03:01;2.10;99.90
6252;DHT22;3159;52.414;9.784;2024-01-15T03:05:28;2.10;99.90
6252;DHT22;3159;52.414;9.784;2024-01-15T03:07:55;2.10;99.90
6252;DHT22;3159;52.414;9.784;2024-01-15T03:10:22;2.10;99.90
6252;DHT22;3159;52.414;9.784;2024-01-15T03:12:49;2.10;99.90
6252;DHT22;3159;52.414;9.784;2024-01-15T03:15:17;2.10;99.90
6252;DHT22;3159;52.414;9.784;2024-01-15T03:17:44;2.10;99.90
6252;DHT22;3159;52.414;9.784;2024-01-15T03:20:11;2.10;99.90
6252;DHT22;3159;52.414;9.784;2024-01-15T03:22:38;2.10;99.90
6252;DHT22;3159;52.414;9.784;2024-01-15T03:25:06;2.20;99.90
6252;DHT22;3159;52.414;9.784;2024-01-15T03:27:33;2.20;99.90
6252;DHT22;3159;52.414;9.784;2024-01-15T03:30:00;2.20;99.90
6252;DHT22;3159;52.414;9.784;2024-01-15T03:32:29;2.20;99.90
6252;DHT22;3159;52.414;9.784;2024-01-15T03:34:56;2.10;99.90
6252;DHT22;3159;52.414;9.784;2024-01-15T03:37:22;2.20;99.90
6252;DHT22;3159;52.414;9.784;2024-01-15T03:39:49;2.20;99.90
6252;DHT22;3159;52.414;9.784;2024-01-15T03:42:16;2.10;99.90
6252;DHT22;3159;52.414;9.784;2024-01-15T03:44:43;2.10;99.90
6252;DHT22;3159;52.414;9.784;2024-01-15T03:47:10;2.20;99.90
6252;DHT22;3159;52.414;9.784;2024-01-15T03:49:38;2.20;99.90
6252;DHT22;3159;52.414;9.784;2024-01-15T03:52:05;2.10;99.90
6252;DHT22;3159;52.414;9.784;2024-01-15T03:54:32;2.10;99.90
6252;DHT22;3159;52.414;9.784;2024-01-15T03:56:59;2.10;99.90
6252;DHT22;3159;52.414;9.784;2024-01-15T03:59:26;2.10;99.90
6252;DHT22;3159;52.414;9.784;2024-01-15T04:01:53;2.10;99.90
6252;DHT22;3159;52.414;9.784;2024-01-15T04:04:20;2.20;99.90
6252;DHT22;3159;52.414;9.784;2024-01-15T04:06:48;2.20;99.90
6252;DHT22;3159;52.414;9.784;2024-01-15T04:09:14;2.20;99.90
6252;DHT22;3159;52.414;9.784;2024-01-15T04:11:41;2.20;99.90
6252;DHT22;3159;52.414;9.784;2024-01-15T04:14:08;2.20;99.90
6252;DHT22;3159;52.414;9.784;2024-01-15T04:16:35;2.30;99.90
6252;DHT22;3159;52.414;9.784;2024-01-15T04:19:01;2.30;99.90
6252;DHT22;3159;52.414;9.784;2024-01-15T04:21:28;2.30;99.90
6252;DHT22;3159;52.414;9.784;2024-01-15T04:23:56;2.30;99.90
6252;DHT22;3159;52.414;9.784;2024-01-15T04:26:23;2.30;99.90
6252;DHT22;3159;52.414;9.784;2024-01-15T04:28:50;2.30;99.90
6252;DHT22;3159;52.414;9.784;2024-01-15T04:31:24;2.30;99.90
6252;DHT22;3159;52.414;9.784;2024-01-15T04:33:52;2.20;99.90
6252;DHT22;3159;52.414;9.784;2024-01-15T04:36:19;2.30;99.90
6252;DHT22;3159;52.414;9.784;2024-01-15T04:38:46;2.30;99.90
6252;DHT22;3159;52.414;9.784;2024-01-15T04:41:14;2.10;99.90
6252;DHT22;3159;52.414;9.784;2024-01-15T04:43:42;2.20;99.90
6252;DHT22;3159;52.414;9.784;2024-01-15T04:46:09;2.20;99.90
6252;DHT22;3159;52.414;9.784;2024-01-15T04:48:36;2.20;99.90
6252;DHT22;3159;52.414;9.784;2024-01-15T04:51:04;2.20;99.90
6252;DHT22;3159;52.414;9.784;2024-01-15T04:53:32;2.20;99.90
6252;DHT22;3159;52.414;9.784;2024-01-15T04:55:58;2.20;99.90
6252;DHT22;3159;52.414;9.784;2024-01-15T04:58:26;2.20;99.90
6252;DHT22;3159;52.414;9.784;2024-01-15T05:00:53;2.30;99.90
6252;DHT22;3159;52.414;9.784;2024-01-15T05:03:20;2.30;99.90
6252;DHT22;3159;52.414;9.784;2024-01-15T05:05:47;2.30;99.90
6252;DHT22;3159;52.414;9.784;2024-01-15T05:08:14;2.20;99.90
6252;DHT22;3159;52.414;9.784;2024-01-15T05:10:41;2.20;99.90
6252;DHT22;3159;52.414;9.784;2024-01-15T05:13:08;2.10;99.90
6252;DHT22;3159;52.414;9.784;2024-01-15T05:15:36;2.10;99.90
6252;DHT22;3159;52.414;9.784;2024-01-15T05:18:03;2.10;99.90
6252;DHT22;3159;52.414;9.784;2024-01-15T05:20:29;2.00;99.90
6252;DHT22;3159;52.414;9.784;2024-01-15T05:22:56;2.00;99.90
6252;DHT22;3159;52.414;9.784;2024-01-15T05:25:23;2.10;99.90
6252;DHT22;3159;52.414;9.784;2024-01-15T05:27:50;2.10;99.90
6252;DHT22;3159;52.414;9.784;2024-01-15T05:30:17;2.20;99.90
6252;DHT22;3159;52.414;9.784;2024-01-15T05:32:45;2.10;99.90
6252;DHT22;3159;52.414;9.784;2024-01-15T05:35:12;2.10;99.90
6252;DHT22;3159;52.414;9.784;2024-01-15T05:37:45;2.10;99.90
6252;DHT22;3159;52.414;9.784;2024-01-15T05:40:12;2.10;99.90
6252;DHT22;3159;52.414;9.784;2024-01-15T05:42:39;2.10;99.90
6252;DHT22;3159;52.414;9.784;2024-01-15T05:45:07;2.10;99.90
6252;DHT22;3159;52.414;9.784;2024-01-15T05:47:33;2.10;99.90
6252;DHT22;3159;52.414;9.784;2024-01-15T05:50:02;2.20;99.90
6252;DHT22;3159;52.414;9.784;2024-01-15T05:52:29;2.10;99.90
6252;DHT22;3159;52.414;9.784;2024-01-15T05:54:56;2.10;99.90
6252;DHT22;3159;52.414;9.784;2024-01-15T05:57:23;2.20;99.90
6252;DHT22;3159;52.414;9.784;2024-01-15T05:59:49;2.20;99.90
6252;DHT22;3159;52.414;9.784;2024-01-15T06:02:16;2.10;99.90
6252;DHT22;3159;52.414;9.784;2024-01-15T06:04:43;2.10;99.90
6252;DHT22;3159;52.414;9.784;2024-01-15T06:07:11;2.10;99.90
6252;DHT22;3159;52.414;9.784;2024-01-15T06:09:38;2.10;99.90
6252;DHT22;3159;52.414;9.784;2024-01-15T06:12:06;2.10;99.90
6252;DHT22;3159;52.414;9.784;2024-01-15T06:14:33;2.20;99.90
6252;DHT22;3159;52.414;9.784;2024-01-15T06:17:00;2.10;99.90
6252;DHT22;3159;52.414;9.784;2024-01-15T06:19:27;2.10;99.90
6252;DHT22;3159;52.414;9.784;2024-01-15T06:21:53;2.10;99.90
6252;DHT22;3159;52.414;9.784;2024-01-15T06:24:22;2.10;99.90
6252;DHT22;3159;52.414;9.784;2024-01-15T06:26:48;2.00;99.90
6252;DHT22;3159;52.414;9.784;2024-01-15T06:29:15;2.00;99.90
6252;DHT22;3159;52.414;9.784;2024-01-15T06:31:42;2.00;99.90
6252;DHT22;3159;52.414;9.784;2024-01-15T06:34:09;2.10;99.90
6252;DHT22;3159;52.414;9.784;2024-01-15T06:36:35;2.00;99.90
6252;DHT22;3159;52.414;9.784;2024-01-15T06:39:02;2.00;99.90
6252;DHT22;3159;52.414;9.784;2024-01-15T06:41:30;2.00;99.90
6252;DHT22;3159;52.414;9.784;2024-01-15T06:43:57;2.00;99.90
6252;DHT22;3159;52.414;9.784;2024-01-15T06:46:24;2.10;99.90
6252;DHT22;3159;52.414;9.784;2024-01-15T06:48:51;2.10;99.90
6252;DHT22;3159;52.414;9.784;2024-01-15T06:51:18;2.10;99.90
6252;DHT22;3159;52.414;9.784;2024-01-15T06:53:44;2.10;99.90
6252;DHT22;3159;52.414;9.784;2024-01-15T06:56:11;2.10;99.90
6252;DHT22;3159;52.414;9.784;2024-01-15T06:58:39;2.10;99.90
6252;DHT22;3159;52.414;9.784;2024-01-15T07:01:06;2.10;99.90
6252;DHT22;3159;52.414;9.784;2024-01-15T07:03:33;2.10;99.90
6252;DHT22;3159;52.414;9.784;2024-01-15T07:06:00;2.20;99.90
6252;DHT22;3159;52.414;9.784;2024-01-15T07:08:27;2.20;99.90
6252;DHT22;3159;52.414;9.784;2024-01-15T07:10:53;2.20;99.90
6252;DHT22;3159;52.414;9.784;2024-01-15T07:13:20;2.20;99.90
6252;DHT22;3159;52.414;9.784;2024-01-15T07:15:48;2.20;99.90
6252;DHT22;3159;52.414;9.784;2024-01-15T07:18:15;2.10;99.90
6252;DHT22;3159;52.414;9.784;2024-01-15T07:20:42;2.20;99.90
6252;DHT22;3159;52.414;9.784;2024-01-15T07:23:09;2.20;99.90
6252;DHT22;3159;52.414;9.784;2024-01-15T07:25:36;2.20;99.90
6252;DHT22;3159;52.414;9.784;2024-01-15T07:28:03;2.10;99.90
6252;DHT22;3159;52.414;9.784;2024-01-15T07:30:30;2.10;99.90
6252;DHT22;3159;52.414;9.784;2024-01-15T07:32:58;2.10;99.90
6252;DHT22;3159;52.414;9.784;2024-01-15T07:35:25;2.20;99.90
6252;DHT22;3159;52.414;9.784;2024-01-15T07:37:52;2.10;99.90
6252;DHT22;3159;52.414;9.784;2024-01-15T07:40:18;2.00;99.90
6252;DHT22;3159;52.414;9.784;2024-01-15T07:42:45;2.10;99.90
6252;DHT22;3159;52.414;9.784;2024-01-15T07:45:13;2.10;99.90
6252;DHT22;3159;52.414;9.784;2024-01-15T07:47:39;2.10;99.90
6252;DHT22;3159;52.414;9.784;2024-01-15T07:50:08;2.10;99.90
6252;DHT22;3159;52.414;9.784;2024-01-15T07:52:34;2.10;99.90
6252;DHT22;3159;52.414;9.784;2024-01-15T07:55:01;2.00;99.90
6252;DHT22;3159;52.414;9.784;2024-01-15T07:57:29;2.10;99.90
6252;DHT22;3159;52.414;9.784;2024-01-15T07:59:56;2.10;99.90
6252;DHT22;3159;52.414;9.784;2024-01-15T08:02:22;2.10;99.90
6252;DHT22;3159;52.414;9.784;2024-01-15T08:04:49;2.00;99.90
6252;DHT22;3159;52.414;9.784;2024-01-15T08:07:17;2.00;99.90
6252;DHT22;3159;52.414;9.784;2024-01-15T08:09:44;1.90;99.90
6252;DHT22;3159;52.414;9.784;2024-01-15T08:12:13;1.90;99.90
6252;DHT22;3159;52.414;9.784;2024-01-15T08:14:40;1.90;99.90
6252;DHT22;3159;52.414;9.784;2024-01-15T08:17:06;1.90;99.90
6252;DHT22;3159;52.414;9.784;2024-01-15T08:19:33;1.90;99.90
6252;DHT22;3159;52.414;9.784;2024-01-15T08:22:00;1.80;99.90
6252;DHT22;3159;52.414;9.784;2024-01-15T08:24:28;1.90;99.90
6252;DHT22;3159;52.414;9.784;2024-01-15T08:26:55;1.80;99.90
6252;DHT22;3159;52.414;9.784;2024-01-15T08:29:22;1.90;99.90
6252;DHT22;3159;52.414;9.784;2024-01-15T08:31:50;1.80;99.90
6252;DHT22;3159;52.414;9.784;2024-01-15T08:34:17;1.90;99.90
6252;DHT22;3159;52.414;9.784;2024-01-15T08:36:44;1.90;99.90
6252;DHT22;3159;52.414;9.784;2024-01-15T08:39:10;1.90;99.90
6252;DHT22;3159;52.414;9.784;2024-01-15T08:41:38;1.80;99.90
6252;DHT22;3159;52.414;9.784;2024-01-15T08:44:05;1.80;99.90
6252;DHT22;3159;52.414;9.784;2024-01-15T08:46:32;1.80;99.90
6252;DHT22;3159;52.414;9.784;2024-01-15T08:48:59;1.80;99.90
6252;DHT22;3159;52.414;9.784;2024-01-15T08:51:26;1.90;99.90
6252;DHT22;3159;52.414;9.784;2024-01-15T08:53:53;1.90;99.90
6252;DHT22;3159;52.414;9.784;2024-01-15T08:56:20;2.00;99.90
6252;DHT22;3159;52.414;9.784;2024-01-15T08:58:48;2.10;99.90
6252;DHT22;3159;52.414;9.784;2024-01-15T09:01:15;2.20;99.90
6252;DHT22;3159;52.414;9.784;2024-01-15T09:03:42;2.30;99.90
6252;DHT22;3159;52.414;9.784;2024-01-15T09:06:09;2.20;99.90
6252;DHT22;3159;52.414;9.784;2024-01-15T09:08:36;2.30;99.90
6252;DHT22;3159;52.414;9.784;2024-01-15T09:11:03;2.20;99.90
6252;DHT22;3159;52.414;9.784;2024-01-15T09:13:30;2.10;99.90
6252;DHT22;3159;52.414;9.784;2024-01-15T09:15:58;2.20;99.90
6252;DHT22;3159;52.414;9.784;2024-01-15T09:18:26;2.10;99.90
6252;DHT22;3159;52.414;9.784;2024-01-15T09:20:53;2.20;99.90
6252;DHT22;3159;52.414;9.784;2024-01-15T09:23:20;2.30;99.90
6252;DHT22;3159;52.414;9.784;2024-01-15T09:25:46;2.70;99.90
6252;DHT22;3159;52.414;9.784;2024-01-15T09:28:14;2.60;99.90
6252;DHT22;3159;52.414;9.784;2024-01-15T09:30:41;2.60;99.90
6252;DHT22;3159;52.414;9.784;2024-01-15T09:33:09;2.60;99.90
6252;DHT22;3159;52.414;9.784;2024-01-15T09:35:35;2.60;99.90
6252;DHT22;3159;52.414;9.784;2024-01-15T09:38:02;2.50;99.90
6252;DHT22;3159;52.414;9.784;2024-01-15T09:40:32;2.60;99.90
6252;DHT22;3159;52.414;9.784;2024-01-15T09:43:00;2.60;99.90
6252;DHT22;3159;52.414;9.784;2024-01-15T09:45:28;2.90;99.90
6252;DHT22;3159;52.414;9.784;2024-01-15T09:47:56;2.80;99.90
6252;DHT22;3159;52.414;9.784;2024-01-15T09:50:24;2.70;99.90
6252;DHT22;3159;52.414;9.784;2024-01-15T09:52:52;2.80;99.90
6252;DHT22;3159;52.414;9.784;2024-01-15T09:55:19;2.70;99.90
6252;DHT22;3159;52.414;9.784;2024-01-15T09:57:46;2.70;99.90
6252;DHT22;3159;52.414;9.784;2024-01-15T10:00:13;2.80;99.90
6252;DHT22;3159;52.414;9.784;2024-01-15T10:02:41;3.20;99.90
6252;DHT22;3159;52.414;9.784;2024-01-15T10:05:08;3.00;99.90
6252;DHT22;3159;52.414;9.784;2024-01-15T10:07:37;2.80;99.90
6252;DHT22;3159;52.414;9.784;2024-01-15T10:10:05;2.60;99.90
6252;DHT22;3159;52.414;9.784;2024-01-15T10:12:32;2.60;99.90
6252;DHT22;3159;52.414;9.784;2024-01-15T10:14:59;2.50;99.90
6252;DHT22;3159;52.414;9.784;2024-01-15T10:17:26;2.50;99.90
6252;DHT22;3159;52.414;9.784;2024-01-15T10:19:53;2.50;99.90
6252;DHT22;3159;52.414;9.784;2024-01-15T10:22:20;2.50;99.90
6252;DHT22;3159;52.414;9.784;2024-01-15T10:24:48;2.50;99.90
6252;DHT22;3159;52.414;9.784;2024-01-15T10:27:15;2.30;99.90
6252;DHT22;3159;52.414;9.784;2024-01-15T10:29:42;2.40;99.90
6252;DHT22;3159;52.414;9.784;2024-01-15T10:32:10;2.40;99.90
6252;DHT22;3159;52.414;9.784;2024-01-15T10:34:38;2.30;99.90
6252;DHT22;3159;52.414;9.784;2024-01-15T10:37:07;2.20;99.90
6252;DHT22;3159;52.414;9.784;2024-01-15T10:39:34;2.30;99.90
6252;DHT22;3159;52.414;9.784;2024-01-15T10:42:03;2.30;99.90
6252;DHT22;3159;52.414;9.784;2024-01-15T10:44:30;2.30;99.90
6252;DHT22;3159;52.414;9.784;2024-01-15T10:46:57;2.30;99.90
6252;DHT22;3159;52.414;9.784;2024-01-15T10:49:24;2.30;99.90
6252;DHT22;3159;52.414;9.784;2024-01-15T10:51:53;2.30;99.90
6252;DHT22;3159;52.414;9.784;2024-01-15T10:54:21;2.40;99.90
6252;DHT22;3159;52.414;9.784;2024-01-15T10:56:49;2.50;99.90
6252;DHT22;3159;52.414;9.784;2024-01-15T10:59:20;2.50;99.90
6252;DHT22;3159;52.414;9.784;2024-01-15T11:01:47;2.40;99.90
6252;DHT22;3159;52.414;9.784;2024-01-15T11:04:14;2.30;99.90
6252;DHT22;3159;52.414;9.784;2024-01-15T11:06:43;2.40;99.90
6252;DHT22;3159;52.414;9.784;2024-01-15T11:09:12;2.50;99.90
6252;DHT22;3159;52.414;9.784;2024-01-15T11:11:41;2.60;99.90
6252;DHT22;3159;52.414;9.784;2024-01-15T11:14:08;2.40;99.90
6252;DHT22;3159;52.414;9.784;2024-01-15T11:16:55;2.40;99.90
6252;DHT22;3159;52.414;9.784;2024-01-15T11:19:25;2.40;99.90
6252;DHT22;3159;52.414;9.784;2024-01-15T11:21:52;2.50;99.90
6252;DHT22;3159;52.414;9.784;2024-01-15T11:24:36;2.60;99.90
6252;DHT22;3159;52.414;9.784;2024-01-15T11:27:03;2.70;99.90
6252;DHT22;3159;52.414;9.784;2024-01-15T11:29:32;2.70;99.90
6252;DHT22;3159;52.414;9.784;2024-01-15T11:32:03;2.70;99.90
6252;DHT22;3159;52.414;9.784;2024-01-15T11:34:53;2.70;99.90
6252;DHT22;3159;52.414;9.784;2024-01-15T11:37:23;2.70;99.90
6252;DHT22;3159;52.414;9.784;2024-01-15T11:39:52;2.80;99.90
6252;DHT22;3159;52.414;9.784;2024-01-15T11:42:20;2.80;99.90
6252;DHT22;3159;52.414;9.784;2024-01-15T11:44:47;2.90;99.90
6252;DHT22;3159;52.414;9.784;2024-01-15T11:47:16;2.90;99.90
6252;DHT22;3159;52.414;9.784;2024-01-15T11:49:59;2.80;99.90
6252;DHT22;3159;52.414;9.784;2024-01-15T11:52:32;2.80;99.90
6252;DHT22;3159;52.414;9.784;2024-01-15T11:55:01;2.70;99.90
6252;DHT22;3159;52.414;9.784;2024-01-15T11:57:37;2.70;99.90
6252;DHT22;3159;52.414;9.784;2024-01-15T12:00:08;2.70;99.90
6252;DHT22;3159;52.414;9.784;2024-01-15T12:02:37;2.70;99.90
6252;DHT22;3159;52.414;9.784;2024-01-15T12:05:04;2.60;99.90
6252;DHT22;3159;52.414;9.784;2024-01-15T12:07:31;2.70;99.90
6252;DHT22;3159;52.414;9.784;2024-01-15T12:09:58;2.60;99.90
6252;DHT22;3159;52.414;9.784;2024-01-15T12:12:33;2.60;99.90
6252;DHT22;3159;52.414;9.784;2024-01-15T12:15:04;2.60;99.90
6252;DHT22;3159;52.414;9.784;2024-01-15T12:17:31;2.60;99.90
6252;DHT22;3159;52.414;9.784;2024-01-15T12:19:59;2.70;99.90
6252;DHT22;3159;52.414;9.784;2024-01-15T12:22:26;2.70;99.90
6252;DHT22;3159;52.414;9.784;2024-01-15T12:24:53;2.60;99.90
6252;DHT22;3159;52.414;9.784;2024-01-15T12:27:21;2.60;99.90
6252;DHT22;3159;52.414;9.784;2024-01-15T12:29:47;2.60;99.90
6252;DHT22;3159;52.414;9.784;2024-01-15T12:32:14;2.70;99.90
6252;DHT22;3159;52.414;9.784;2024-01-15T12:34:41;2.80;99.90
6252;DHT22;3159;52.414;9.784;2024-01-15T12:37:11;2.80;99.90
6252;DHT22;3159;52.414;9.784;2024-01-15T12:39:38;2.80;99.90
6252;DHT22;3159;52.414;9.784;2024-01-15T12:42:05;2.80;99.90
6252;DHT22;3159;52.414;9.784;2024-01-15T12:44:32;2.80;99.90
6252;DHT22;3159;52.414;9.784;2024-01-15T12:46:59;2.80;99.90
6252;DHT22;3159;52.414;9.784;2024-01-15T12:49:26;2.70;99.90
6252;DHT22;3159;52.414;9.784;2024-01-15T12:51:53;2.80;99.90
6252;DHT22;3159;52.414;9.784;2024-01-15T12:54:22;2.80;99.90
6252;DHT22;3159;52.414;9.784;2024-01-15T12:56:49;2.80;99.90
6252;DHT22;3159;52.414;9.784;2024-01-15T12:59:16;2.70;99.90
6252;DHT22;3159;52.414;9.784;2024-01-15T13:01:43;2.80;99.90
6252;DHT22;3159;52.414;9.784;2024-01-15T13:04:10;2.70;99.90
6252;DHT22;3159;52.414;9.784;2024-01-15T13:06:37;2.70;99.90
6252;DHT22;3159;52.414;9.784;2024-01-15T13:09:04;2.70;99.90
6252;DHT22;3159;52.414;9.784;2024-01-15T13:11:33;2.80;99.90
6252;DHT22;3159;52.414;9.784;2024-01-15T13:14:00;2.70;99.90
6252;DHT22;3159;52.414;9.784;2024-01-15T13:16:27;2.70;99.90
6252;DHT22;3159;52.414;9.784;2024-01-15T13:18:54;2.60;99.90
6252;DHT22;3159;52.414;9.784;2024-01-15T13:21:22;2.60;99.90
6252;DHT22;3159;52.414;9.784;2024-01-15T13:23:49;2.70;99.90
6252;DHT22;3159;52.414;9.784;2024-01-15T13:26:16;2.80;99.90
6252;DHT22;3159;52.414;9.784;2024-01-15T13:28:46;2.60;99.90
6252;DHT22;3159;52.414;9.784;2024-01-15T13:31:13;2.60;99.90
6252;DHT22;3159;52.414;9.784;2024-01-15T13:33:40;2.60;99.90
6252;DHT22;3159;52.414;9.784;2024-01-15T13:36:07;2.60;99.90
6252;DHT22;3159;52.414;9.784;2024-01-15T13:38:36;2.60;99.90
6252;DHT22;3159;52.414;9.784;2024-01-15T13:41:04;2.70;99.90
6252;DHT22;3159;52.414;9.784;2024-01-15T13:43:31;2.80;99.90
6252;DHT22;3159;52.414;9.784;2024-01-15T13:45:59;2.70;99.90
6252;DHT22;3159;52.414;9.784;2024-01-15T13:48:30;2.60;99.90
6252;DHT22;3159;52.414;9.784;2024-01-15T13:50:57;2.60;99.90
6252;DHT22;3159;52.414;9.784;2024-01-15T13:53:24;2.60;99.90
6252;DHT22;3159;52.414;9.784;2024-01-15T13:55:51;2.50;99.90
6252;DHT22;3159;52.414;9.784;2024-01-15T13:58:18;2.60;99.90
6252;DHT22;3159;52.414;9.784;2024-01-15T14:00:47;2.50;99.90
6252;DHT22;3159;52.414;9.784;2024-01-15T14:03:15;2.50;99.90
6252;DHT22;3159;52.414;9.784;2024-01-15T14:05:42;2.60;99.90
6252;DHT22;3159;52.414;9.784;2024-01-15T14:08:08;2.50;99.90
6252;DHT22;3159;52.414;9.784;2024-01-15T14:10:36;2.30;99.90
6252;DHT22;3159;52.414;9.784;2024-01-15T14:13:03;2.30;99.90
6252;DHT22;3159;52.414;9.784;2024-01-15T14:15:30;2.20;99.90
6252;DHT22;3159;52.414;9.784;2024-01-15T14:17:57;2.20;99.90
6252;DHT22;3159;52.414;9.784;2024-01-15T14:20:25;2.30;99.90
6252;DHT22;3159;52.414;9.784;2024-01-15T14:22:53;2.20;99.90
6252;DHT22;3159;52.414;9.784;2024-01-15T14:25:19;2.20;99.90
6252;DHT22;3159;52.414;9.784;2024-01-15T14:27:46;2.20;99.90
6252;DHT22;3159;52.414;9.784;2024-01-15T14:30:14;2.20;99.90
6252;DHT22;3159;52.414;9.784;2024-01-15T14:32:41;2.20;99.90
6252;DHT22;3159;52.414;9.784;2024-01-15T14:35:08;2.20;99.90
6252;DHT22;3159;52.414;9.784;2024-01-15T14:37:38;2.30;99.90
6252;DHT22;3159;52.414;9.784;2024-01-15T14:40:06;2.40;99.90
6252;DHT22;3159;52.414;9.784;2024-01-15T14:42:33;2.30;99.90
6252;DHT22;3159;52.414;9.784;2024-01-15T14:45:00;2.30;99.90
6252;DHT22;3159;52.414;9.784;2024-01-15T14:47:28;2.30;99.90
6252;DHT22;3159;52.414;9.784;2024-01-15T14:49:55;2.20;99.90
6252;DHT22;3159;52.414;9.784;2024-01-15T14:52:23;2.20;99.90
6252;DHT22;3159;52.414;9.784;2024-01-15T14:54:51;2.20;99.90
6252;DHT22;3159;52.414;9.784;2024-01-15T14:57:18;2.10;99.90
6252;DHT22;3159;52.414;9.784;2024-01-15T14:59:45;2.10;99.90
6252;DHT22;3159;52.414;9.784;2024-01-15T15:02:11;2.00;99.90
6252;DHT22;3159;52.414;9.784;2024-01-15T15:04:39;2.00;99.90
6252;DHT22;3159;52.414;9.784;2024-01-15T15:07:07;2.20;99.90
6252;DHT22;3159;52.414;9.784;2024-01-15T15:09:33;2.10;99.90
6252;DHT22;3159;52.414;9.784;2024-01-15T15:12:05;2.20;99.90
6252;DHT22;3159;52.414;9.784;2024-01-15T15:14:32;2.10;99.90
6252;DHT22;3159;52.414;9.784;2024-01-15T15:17:03;2.20;99.90
6252;DHT22;3159;52.414;9.784;2024-01-15T15:19:30;2.00;99.90
6252;DHT22;3159;52.414;9.784;2024-01-15T15:21:57;2.00;99.90
6252;DHT22;3159;52.414;9.784;2024-01-15T15:24:24;2.10;99.90
6252;DHT22;3159;52.414;9.784;2024-01-15T15:26:51;2.10;99.90
6252;DHT22;3159;52.414;9.784;2024-01-15T15:29:19;2.00;99.90
6252;DHT22;3159;52.414;9.784;2024-01-15T15:31:46;2.00;99.90
6252;DHT22;3159;52.414;9.784;2024-01-15T15:34:14;2.00;99.90
6252;DHT22;3159;52.414;9.784;2024-01-15T15:36:42;2.10;99.90
6252;DHT22;3159;52.414;9.784;2024-01-15T15:39:09;2.00;99.90
6252;DHT22;3159;52.414;9.784;2024-01-15T15:41:36;2.10;99.90
6252;DHT22;3159;52.414;9.784;2024-01-15T15:44:03;2.00;99.90
6252;DHT22;3159;52.414;9.784;2024-01-15T15:46:31;2.00;99.90
6252;DHT22;3159;52.414;9.784;2024-01-15T15:48:58;2.10;99.90
6252;DHT22;3159;52.414;9.784;2024-01-15T15:51:26;2.10;99.90
6252;DHT22;3159;52.414;9.784;2024-01-15T15:53:53;2.10;99.90
6252;DHT22;3159;52.414;9.784;2024-01-15T15:56:21;2.10;99.90
6252;DHT22;3159;52.414;9.784;2024-01-15T15:58:48;2.00;99.90
6252;DHT22;3159;52.414;9.784;2024-01-15T16:01:14;2.10;99.90
6252;DHT22;3159;52.414;9.784;2024-01-15T16:03:43;1.90;99.90
6252;DHT22;3159;52.414;9.784;2024-01-15T16:06:10;1.90;99.90
6252;DHT22;3159;52.414;9.784;2024-01-15T16:08:36;2.00;99.90
6252;DHT22;3159;52.414;9.784;2024-01-15T16:11:03;2.00;99.90
6252;DHT22;3159;52.414;9.784;2024-01-15T16:13:30;1.90;99.90
6252;DHT22;3159;52.414;9.784;2024-01-15T16:15:57;1.90;99.90
6252;DHT22;3159;52.414;9.784;2024-01-15T16:18:24;1.90;99.90